CEB803 RPLL-WSSS
Flight info
| Callsign | CEB803 |
|---|---|
| Flight time | N/A |
| Altitude | 36000 |
| Route | BUCAL2R BUCAL M646 TOKON M767 TOMAN KARTO2A |
| Aircraft | A21N/M-SDE3FGHIRWY/LB1 |
Departure
| Time | 2026-05-06 16:54 |
|---|---|
| Airport | Ninoy Aquino International Airport (RPLL) |
Arrival
| Time | N/A |
|---|---|
| Airport | Singapore Changi Airport (WSSS) |
| Time | Latitude | Longitude | Altitude | Speed | Heading |
|---|---|---|---|---|---|
| 2026-05-06 16:29 | 14.51655 | 121.01717 | 84 ft | 0 kts | 225° |
| 2026-05-06 16:37 | 14.51664 | 121.01726 | 84 ft | 2 kts | 225° |
| 2026-05-06 16:38 | 14.51675 | 121.01738 | 84 ft | 2 kts | 225° |
| 2026-05-06 16:38 | 14.51682 | 121.01745 | 84 ft | 1 kts | 225° |
| 2026-05-06 16:38 | 14.51694 | 121.01754 | 84 ft | 2 kts | 194° |
| 2026-05-06 16:38 | 14.51709 | 121.01755 | 84 ft | 2 kts | 169° |
| 2026-05-06 16:39 | 14.51723 | 121.01749 | 84 ft | 1 kts | 142° |
| 2026-05-06 16:39 | 14.51728 | 121.01744 | 84 ft | 1 kts | 131° |
| 2026-05-06 16:39 | 14.51730 | 121.01742 | 84 ft | 0 kts | 134° |
| 2026-05-06 16:42 | 14.51729 | 121.01743 | 84 ft | 0 kts | 134° |
| 2026-05-06 16:42 | 14.51728 | 121.01744 | 84 ft | 0 kts | 134° |
| 2026-05-06 16:43 | 14.51716 | 121.01756 | 84 ft | 4 kts | 134° |
| 2026-05-06 16:43 | 14.51661 | 121.01784 | 84 ft | 14 kts | 182° |
| 2026-05-06 16:43 | 14.51561 | 121.01711 | 84 ft | 20 kts | 224° |
| 2026-05-06 16:43 | 14.51456 | 121.01618 | 84 ft | 18 kts | 188° |
| 2026-05-06 16:44 | 14.51357 | 121.01692 | 84 ft | 18 kts | 135° |
| 2026-05-06 16:44 | 14.51261 | 121.01792 | 84 ft | 20 kts | 134° |
| 2026-05-06 16:44 | 14.51166 | 121.01891 | 84 ft | 19 kts | 135° |
| 2026-05-06 16:44 | 14.51126 | 121.01931 | 84 ft | 0 kts | 135° |
| 2026-05-06 16:45 | 14.51121 | 121.01937 | 84 ft | 1 kts | 135° |
| 2026-05-06 16:45 | 14.51113 | 121.01945 | 84 ft | 1 kts | 135° |
| 2026-05-06 16:45 | 14.51103 | 121.01955 | 84 ft | 2 kts | 135° |
| 2026-05-06 16:45 | 14.51098 | 121.01960 | 84 ft | 0 kts | 135° |
| 2026-05-06 16:48 | 14.51094 | 121.01965 | 84 ft | 5 kts | 135° |
| 2026-05-06 16:48 | 14.51034 | 121.01970 | 84 ft | 11 kts | 232° |
| 2026-05-06 16:48 | 14.50969 | 121.01859 | 84 ft | 29 kts | 240° |
| 2026-05-06 16:48 | 14.50867 | 121.01678 | 84 ft | 28 kts | 241° |
| 2026-05-06 16:49 | 14.50775 | 121.01510 | 84 ft | 26 kts | 240° |
| 2026-05-06 16:49 | 14.50688 | 121.01352 | 84 ft | 24 kts | 240° |
| 2026-05-06 16:49 | 14.50596 | 121.01187 | 84 ft | 26 kts | 240° |
| 2026-05-06 16:49 | 14.50507 | 121.01028 | 84 ft | 25 kts | 240° |
| 2026-05-06 16:50 | 14.50416 | 121.00864 | 84 ft | 27 kts | 240° |
| 2026-05-06 16:50 | 14.50320 | 121.00691 | 84 ft | 27 kts | 240° |
| 2026-05-06 16:50 | 14.50228 | 121.00528 | 84 ft | 25 kts | 240° |
| 2026-05-06 16:50 | 14.50171 | 121.00423 | 84 ft | 24 kts | 240° |
| 2026-05-06 16:51 | 14.50064 | 121.00229 | 84 ft | 22 kts | 240° |
| 2026-05-06 16:51 | 14.49988 | 121.00092 | 84 ft | 21 kts | 240° |
| 2026-05-06 16:51 | 14.49923 | 120.99981 | 84 ft | 12 kts | 229° |
| 2026-05-06 16:51 | 14.49874 | 120.99967 | 84 ft | 7 kts | 163° |
| 2026-05-06 16:52 | 14.49820 | 120.99996 | 84 ft | 11 kts | 150° |
| 2026-05-06 16:52 | 14.49808 | 121.00058 | 84 ft | 10 kts | 49° |
| 2026-05-06 16:52 | 14.49814 | 121.00068 | 84 ft | 0 kts | 59° |
| 2026-05-06 16:53 | 14.49840 | 121.00113 | 84 ft | 33 kts | 60° |
| 2026-05-06 16:53 | 14.50086 | 121.00558 | 84 ft | 105 kts | 60° |
| 2026-05-06 16:53 | 14.50553 | 121.01397 | 84 ft | 163 kts | 59° |
| 2026-05-06 16:53 | 14.51159 | 121.02473 | 530 ft | 176 kts | 62° |
| 2026-05-06 16:54 | 14.51755 | 121.03558 | 1210 ft | 177 kts | 61° |
| 2026-05-06 16:54 | 14.52354 | 121.04671 | 1932 ft | 178 kts | 61° |
| 2026-05-06 16:54 | 14.52972 | 121.05801 | 2306 ft | 189 kts | 60° |
| 2026-05-06 16:54 | 14.53643 | 121.07004 | 2632 ft | 201 kts | 60° |
| 2026-05-06 16:55 | 14.54368 | 121.08312 | 2935 ft | 217 kts | 60° |
| 2026-05-06 16:55 | 14.55150 | 121.09717 | 3181 ft | 237 kts | 61° |
| 2026-05-06 16:55 | 14.55981 | 121.11264 | 3504 ft | 253 kts | 66° |
| 2026-05-06 16:55 | 14.56219 | 121.13076 | 3915 ft | 267 kts | 100° |
| 2026-05-06 16:56 | 14.55389 | 121.14784 | 4578 ft | 273 kts | 131° |
| 2026-05-06 16:56 | 14.53807 | 121.15846 | 5225 ft | 281 kts | 162° |
| 2026-05-06 16:56 | 14.51866 | 121.15921 | 5788 ft | 289 kts | 195° |
| 2026-05-06 16:56 | 14.50057 | 121.15009 | 6438 ft | 292 kts | 213° |
| 2026-05-06 16:57 | 14.48351 | 121.13879 | 7102 ft | 295 kts | 214° |
| 2026-05-06 16:57 | 14.46599 | 121.12721 | 7792 ft | 298 kts | 214° |
| 2026-05-06 16:57 | 14.44862 | 121.11591 | 8504 ft | 299 kts | 214° |
| 2026-05-06 16:57 | 14.43096 | 121.10453 | 9177 ft | 301 kts | 214° |
| 2026-05-06 16:58 | 14.41328 | 121.09325 | 9843 ft | 303 kts | 213° |
| 2026-05-06 16:58 | 14.39475 | 121.08257 | 10453 ft | 308 kts | 210° |
| 2026-05-06 16:58 | 14.37544 | 121.07240 | 10747 ft | 323 kts | 209° |
| 2026-05-06 16:58 | 14.35504 | 121.06180 | 11182 ft | 331 kts | 209° |
| 2026-05-06 16:59 | 14.33456 | 121.05115 | 11828 ft | 333 kts | 209° |
| 2026-05-06 16:59 | 14.31399 | 121.04039 | 12488 ft | 333 kts | 209° |
| 2026-05-06 16:59 | 14.29343 | 121.02958 | 13092 ft | 335 kts | 209° |
| 2026-05-06 16:59 | 14.27270 | 121.01865 | 13645 ft | 339 kts | 209° |
| 2026-05-06 17:00 | 14.25148 | 121.00745 | 14196 ft | 343 kts | 209° |
| 2026-05-06 17:00 | 14.23039 | 120.99631 | 14736 ft | 346 kts | 209° |
| 2026-05-06 17:00 | 14.20884 | 120.98492 | 15276 ft | 349 kts | 209° |
| 2026-05-06 17:00 | 14.18721 | 120.97349 | 15806 ft | 352 kts | 209° |
| 2026-05-06 17:01 | 14.16555 | 120.96205 | 16327 ft | 355 kts | 208° |
| 2026-05-06 17:01 | 14.14362 | 120.95047 | 16839 ft | 358 kts | 208° |
| 2026-05-06 17:01 | 14.12128 | 120.93867 | 17344 ft | 361 kts | 208° |
| 2026-05-06 17:01 | 14.09898 | 120.92690 | 17831 ft | 364 kts | 208° |
| 2026-05-06 17:02 | 14.07661 | 120.91509 | 18304 ft | 367 kts | 208° |
| 2026-05-06 17:02 | 14.05379 | 120.90304 | 18774 ft | 370 kts | 208° |
| 2026-05-06 17:02 | 14.03074 | 120.89088 | 19233 ft | 372 kts | 208° |
| 2026-05-06 17:02 | 14.00721 | 120.87846 | 19689 ft | 375 kts | 208° |
| 2026-05-06 17:03 | 13.91917 | 120.83204 | 21301 ft | 385 kts | 208° |